createdAt,value
2023-03-01T00:01:17.508Z,98149.69
2023-03-01T00:03:45.261Z,98147.53
2023-03-01T00:06:13.306Z,98145.56
2023-03-01T00:08:41.094Z,98138.06
2023-03-01T00:11:09.849Z,98136.22
2023-03-01T00:13:37.698Z,98137.50
2023-03-01T00:16:14.014Z,98132.81
2023-03-01T00:18:41.798Z,98122.91
2023-03-01T00:21:09.516Z,98113.34
2023-03-01T00:23:37.455Z,98119.03
2023-03-01T00:26:13.117Z,98111.81
2023-03-01T00:28:42.409Z,98106.84
2023-03-01T00:31:15.011Z,98097.69
2023-03-01T00:33:42.921Z,98096.72
2023-03-01T00:36:11.113Z,98105.06
2023-03-01T00:38:39.667Z,98116.56
2023-03-01T00:41:12.338Z,98113.72
2023-03-01T00:43:40.106Z,98107.88
2023-03-01T00:46:15.637Z,98112.50
2023-03-01T00:48:43.379Z,98105.53
2023-03-01T00:51:16.505Z,98117.63
2023-03-01T00:53:44.447Z,98099.75
2023-03-01T00:56:12.861Z,98105.66
2023-03-01T00:58:40.568Z,98096.38
2023-03-01T01:01:18.790Z,98090.28
2023-03-01T01:03:46.509Z,98086.91
2023-03-01T01:06:19.534Z,98090.34
2023-03-01T01:08:47.476Z,98080.97
2023-03-01T01:11:15.546Z,98083.50
2023-03-01T01:13:44.425Z,98072.06
2023-03-01T01:16:12.321Z,98082.78
2023-03-01T01:18:40.100Z,98083.09
2023-03-01T01:21:12.700Z,98083.13
2023-03-01T01:23:40.876Z,98086.75
2023-03-01T01:26:21.025Z,98073.94
2023-03-01T01:28:49.071Z,98071.72
2023-03-01T01:31:16.932Z,98076.22
2023-03-01T01:33:44.795Z,98078.63
2023-03-01T01:36:12.675Z,98075.69
2023-03-01T01:38:40.442Z,98080.63
2023-03-01T01:41:08.217Z,98084.34
2023-03-01T01:46:26.106Z,98089.75
2023-03-01T01:48:56.088Z,98084.78
2023-03-01T01:51:26.694Z,98084.16
2023-03-01T01:53:58.956Z,98083.38
2023-03-01T01:56:26.659Z,98082.50
2023-03-01T01:58:54.390Z,98079.38
2023-03-01T02:01:22.217Z,98080.25
2023-03-01T02:03:51.142Z,98076.22
2023-03-01T02:06:42.227Z,98080.38
2023-03-01T02:09:13.739Z,98084.69
2023-03-01T02:11:41.568Z,98083.97
2023-03-01T02:14:09.641Z,98085.38
2023-03-01T02:16:37.404Z,98084.25
2023-03-01T02:19:06.003Z,98087.63
2023-03-01T02:22:00.159Z,98082.13
2023-03-01T02:24:50.196Z,98082.31
2023-03-01T02:27:18.342Z,98086.06
2023-03-01T02:29:46.053Z,98089.28
2023-03-01T02:32:16.073Z,98081.94
2023-03-01T02:34:44.148Z,98090.19
2023-03-01T02:37:15.918Z,98083.09
2023-03-01T02:39:45.615Z,98072.69
2023-03-01T02:42:15.909Z,98067.19
2023-03-01T02:44:43.739Z,98066.72
2023-03-01T02:47:11.484Z,98066.56
2023-03-01T02:49:39.193Z,98067.97
2023-03-01T02:52:29.351Z,98071.63
2023-03-01T02:55:14.071Z,98072.75
2023-03-01T02:57:43.168Z,98071.78
2023-03-01T03:00:20.020Z,98068.03
2023-03-01T03:02:52.236Z,98076.22
2023-03-01T03:05:22.962Z,98065.66
2023-03-01T03:07:54.077Z,98072.50
2023-03-01T03:10:32.400Z,98065.00
2023-03-01T03:13:02.350Z,98070.59
2023-03-01T03:15:30.213Z,98068.44
2023-03-01T03:17:58.811Z,98060.84
2023-03-01T03:20:27.686Z,98061.03
2023-03-01T03:22:56.240Z,98048.47
2023-03-01T03:25:24.050Z,98057.97
2023-03-01T03:27:57.640Z,98058.69
2023-03-01T03:30:30.010Z,98060.41
2023-03-01T03:32:58.206Z,98065.19
2023-03-01T03:35:31.363Z,98065.81
2023-03-01T03:38:16.257Z,98073.16
2023-03-01T03:40:48.737Z,98073.31
2023-03-01T03:43:20.940Z,98072.00
2023-03-01T03:48:35.570Z,98073.84
2023-03-01T03:51:06.313Z,98077.44
2023-03-01T03:53:34.185Z,98076.09
2023-03-01T03:56:01.878Z,98079.22
2023-03-01T03:58:29.613Z,98078.03
2023-03-01T04:00:57.777Z,98079.22
2023-03-01T04:03:26.624Z,98088.91
2023-03-01T04:05:54.406Z,98082.56
2023-03-01T04:08:22.842Z,98089.38
2023-03-01T04:10:52.242Z,98082.50
2023-03-01T04:13:22.226Z,98078.59
2023-03-01T04:15:56.291Z,98085.31
2023-03-01T04:18:24.473Z,98087.44
2023-03-01T04:20:53.288Z,98089.56
2023-03-01T04:23:21.826Z,98091.75
2023-03-01T04:25:55.631Z,98091.31
2023-03-01T04:28:41.027Z,98099.47
2023-03-01T04:31:19.394Z,98094.31
2023-03-01T04:33:49.632Z,98087.88
2023-03-01T04:36:18.559Z,98090.06
2023-03-01T04:38:48.475Z,98081.59
2023-03-01T04:41:20.278Z,98083.66
2023-03-01T04:43:47.971Z,98085.94
2023-03-01T04:46:17.383Z,98083.41
2023-03-01T04:48:48.242Z,98083.91
2023-03-01T04:51:16.807Z,98074.50
2023-03-01T04:53:44.706Z,98072.56
2023-03-01T04:56:12.780Z,98075.84
2023-03-01T04:58:40.473Z,98070.72
2023-03-01T05:01:19.853Z,98077.94
2023-03-01T05:03:51.861Z,98075.22
2023-03-01T05:06:19.996Z,98072.69
2023-03-01T05:08:47.693Z,98061.63
2023-03-01T05:11:15.513Z,98060.63
2023-03-01T05:13:43.486Z,98059.22
2023-03-01T05:16:12.388Z,98060.97
2023-03-01T05:18:40.757Z,98062.06
2023-03-01T05:21:13.446Z,98071.28
2023-03-01T05:23:41.751Z,98081.25
2023-03-01T05:26:19.170Z,98073.84
2023-03-01T05:28:57.593Z,98073.66
2023-03-01T05:31:25.403Z,98077.84
2023-03-01T05:33:53.803Z,98069.38
2023-03-01T05:36:21.601Z,98083.19
2023-03-01T05:38:49.344Z,98089.38
2023-03-01T05:41:18.079Z,98082.78
2023-03-01T05:43:46.152Z,98085.81
2023-03-01T05:46:16.238Z,98082.50
2023-03-01T05:48:44.737Z,98077.91
2023-03-01T05:51:13.107Z,98082.50
2023-03-01T05:53:40.822Z,98073.81
2023-03-01T05:56:08.775Z,98086.34
2023-03-01T05:58:37.107Z,98088.53
2023-03-01T06:01:04.939Z,98087.59
2023-03-01T06:03:32.632Z,98087.88
2023-03-01T06:06:00.509Z,98086.84
2023-03-01T06:08:28.400Z,98091.00
2023-03-01T06:10:56.211Z,98089.09
2023-03-01T06:13:24.543Z,98097.25
2023-03-01T06:15:53.022Z,98100.41
2023-03-01T06:18:20.935Z,98092.38
2023-03-01T06:20:54.700Z,98093.06
2023-03-01T06:23:23.289Z,98089.72
2023-03-01T06:25:50.967Z,98099.38
2023-03-01T06:28:18.700Z,98099.63
2023-03-01T06:30:47.085Z,98098.13
2023-03-01T06:33:14.994Z,98097.06
2023-03-01T06:35:42.795Z,98099.81
2023-03-01T06:38:10.526Z,98095.84
2023-03-01T06:40:38.313Z,98096.88
2023-03-01T06:43:06.028Z,98103.88
2023-03-01T06:45:33.709Z,98095.47
2023-03-01T06:48:05.509Z,98106.72
2023-03-01T06:50:33.437Z,98099.16
2023-03-01T06:53:01.282Z,98092.81
2023-03-01T06:55:29.966Z,98086.59
2023-03-01T06:57:58.536Z,98091.75
2023-03-01T07:00:26.954Z,98092.75
2023-03-01T07:02:54.782Z,98088.06
2023-03-01T07:05:22.582Z,98089.50
2023-03-01T07:07:50.255Z,98081.63
2023-03-01T07:10:18.029Z,98091.69
2023-03-01T07:12:47.443Z,98100.19
2023-03-01T07:15:16.180Z,98083.97
2023-03-01T07:17:45.628Z,98086.34
2023-03-01T07:20:13.705Z,98084.44
2023-03-01T07:22:42.964Z,98084.59
2023-03-01T07:25:11.148Z,98083.81
2023-03-01T07:27:38.889Z,98078.84
2023-03-01T07:30:07.371Z,98079.00
2023-03-01T07:32:35.122Z,98086.09
2023-03-01T07:35:02.891Z,98081.88
2023-03-01T07:37:30.544Z,98078.59
2023-03-01T07:39:58.717Z,98086.91
2023-03-01T07:42:26.410Z,98079.28
2023-03-01T07:44:54.134Z,98074.31
2023-03-01T07:47:21.833Z,98066.84
2023-03-01T07:49:49.579Z,98074.41
2023-03-01T07:52:17.275Z,98071.56
2023-03-01T07:54:47.780Z,98074.84
2023-03-01T07:57:15.635Z,98067.91
2023-03-01T07:59:43.361Z,98065.25
2023-03-01T08:02:11.936Z,98069.69
2023-03-01T08:04:39.763Z,98073.50
2023-03-01T08:07:07.462Z,98073.38
2023-03-01T08:09:38.709Z,98070.03
2023-03-01T08:12:06.979Z,98067.25
2023-03-01T08:14:34.663Z,98069.06
2023-03-01T08:17:04.087Z,98067.09
2023-03-01T08:19:31.921Z,98064.63
2023-03-01T08:22:00.888Z,98065.81
2023-03-01T08:24:28.734Z,98068.06
2023-03-01T08:26:56.512Z,98061.16
2023-03-01T08:29:25.732Z,98060.09
2023-03-01T08:31:53.608Z,98063.56
2023-03-01T08:34:21.363Z,98059.94
2023-03-01T08:36:49.287Z,98062.97
2023-03-01T08:39:17.744Z,98063.19
2023-03-01T08:41:48.055Z,98056.38
2023-03-01T08:44:17.761Z,98065.88
2023-03-01T08:46:46.559Z,98069.59
2023-03-01T08:49:15.844Z,98073.72
2023-03-01T08:51:44.361Z,98070.47
2023-03-01T08:54:13.837Z,98069.03
2023-03-01T08:56:41.717Z,98065.16
2023-03-01T08:59:10.566Z,98074.56
2023-03-01T09:01:38.525Z,98073.72
2023-03-01T09:04:06.311Z,98080.97
2023-03-01T09:06:34.618Z,98079.78
2023-03-01T09:09:02.592Z,98069.59
2023-03-01T09:11:30.789Z,98072.69
2023-03-01T09:13:58.568Z,98084.25
2023-03-01T09:16:26.439Z,98072.16
2023-03-01T09:18:55.382Z,98075.06
2023-03-01T09:21:37.552Z,98080.53
2023-03-01T09:24:07.597Z,98082.03
2023-03-01T09:26:35.291Z,98089.06
2023-03-01T09:29:03.048Z,98072.25
2023-03-01T09:31:30.788Z,98071.84
2023-03-01T09:33:58.556Z,98075.13
2023-03-01T09:36:26.559Z,98063.94
2023-03-01T09:38:54.388Z,98072.06
2023-03-01T09:41:39.673Z,98067.16
2023-03-01T09:44:10.312Z,98067.88
2023-03-01T09:46:42.142Z,98056.13
2023-03-01T09:49:23.898Z,98061.06
2023-03-01T09:51:59.908Z,98063.78
2023-03-01T09:54:27.702Z,98058.59
2023-03-01T09:57:27.778Z,98053.63
2023-03-01T10:00:22.354Z,98055.53
2023-03-01T10:03:00.786Z,98049.81
2023-03-01T10:05:32.243Z,98048.69
2023-03-01T10:08:09.087Z,98046.66
2023-03-01T10:10:40.885Z,98046.69
2023-03-01T10:13:25.928Z,98045.97
2023-03-01T10:16:22.441Z,98037.81
2023-03-01T10:18:54.833Z,98035.00
2023-03-01T10:21:22.788Z,98047.31
2023-03-01T10:23:51.896Z,98040.63
2023-03-01T10:26:29.309Z,98035.22
2023-03-01T10:29:00.032Z,98050.47
2023-03-01T10:31:38.340Z,98033.72
2023-03-01T10:34:13.154Z,98041.28
2023-03-01T10:36:41.913Z,98027.94
2023-03-01T10:39:20.930Z,98032.59
2023-03-01T10:42:20.136Z,98028.31
2023-03-01T10:44:49.136Z,98024.28
2023-03-01T10:47:22.231Z,98020.56
2023-03-01T10:50:06.202Z,98013.00
2023-03-01T10:52:35.020Z,98017.63
2023-03-01T10:55:28.128Z,98007.03
2023-03-01T10:58:21.836Z,98013.72
2023-03-01T11:00:53.759Z,98003.53
2023-03-01T11:03:29.219Z,98005.06
2023-03-01T11:06:21.840Z,98010.78
2023-03-01T11:08:50.437Z,98006.75
2023-03-01T11:11:23.986Z,97993.53
2023-03-01T11:14:26.463Z,97990.75
2023-03-01T11:17:14.995Z,97981.28
2023-03-01T11:19:48.814Z,97983.28
2023-03-01T11:22:21.242Z,97979.31
2023-03-01T11:25:08.467Z,97976.13
2023-03-01T11:27:42.088Z,97978.47
2023-03-01T11:30:28.487Z,97963.72
2023-03-01T11:33:19.694Z,97966.19
2023-03-01T11:36:19.756Z,97972.28
2023-03-01T11:38:47.677Z,97960.25
2023-03-01T11:41:22.336Z,97957.88
2023-03-01T11:43:52.312Z,97958.81
2023-03-01T11:46:26.244Z,97965.03
2023-03-01T11:49:16.862Z,97963.34
2023-03-01T11:51:53.298Z,97958.47
2023-03-01T11:54:46.225Z,97965.88
2023-03-01T11:57:16.872Z,97960.22
2023-03-01T12:00:08.917Z,97957.13
2023-03-01T12:02:41.324Z,97960.16
2023-03-01T12:05:37.722Z,97953.03
2023-03-01T12:08:25.648Z,97956.28
2023-03-01T12:11:44.282Z,97951.31
2023-03-01T12:14:37.698Z,97948.06
2023-03-01T12:17:14.726Z,97945.22
2023-03-01T12:19:54.580Z,97944.94
2023-03-01T12:22:28.359Z,97947.72
2023-03-01T12:25:19.853Z,97940.88
2023-03-01T12:28:06.472Z,97941.53
2023-03-01T12:30:55.632Z,97940.69
2023-03-01T12:33:29.844Z,97940.56
2023-03-01T12:36:23.818Z,97941.75
2023-03-01T12:39:14.361Z,97934.47
2023-03-01T12:42:05.077Z,97941.97
2023-03-01T12:44:38.792Z,97936.94
2023-03-01T13:34:42.034Z,97924.53
2023-03-01T13:37:11.401Z,97918.25
2023-03-01T13:39:42.250Z,97914.63
2023-03-01T13:42:33.248Z,97903.81
2023-03-01T13:45:01.422Z,97908.22
2023-03-01T13:47:29.198Z,97899.13
2023-03-01T13:50:01.337Z,97908.66
2023-03-01T13:52:40.451Z,97907.34
2023-03-01T13:55:20.385Z,97907.41
2023-03-01T13:57:59.078Z,97909.13
2023-03-01T14:00:37.850Z,97911.94
2023-03-01T14:03:16.980Z,97912.88
2023-03-01T14:06:17.746Z,97917.31
2023-03-01T14:08:47.316Z,97915.53
2023-03-01T14:11:31.839Z,97928.09
2023-03-01T14:14:21.441Z,97911.72
2023-03-01T14:16:54.953Z,97913.91
2023-03-01T14:19:35.153Z,97913.88
2023-03-01T14:22:30.049Z,97910.25
2023-03-01T14:25:02.448Z,97919.53
2023-03-01T14:27:42.937Z,97893.72
2023-03-01T14:30:47.119Z,97902.78
2023-03-01T14:33:22.031Z,97894.94
2023-03-01T14:35:57.025Z,97899.69
2023-03-01T14:38:30.699Z,97895.91
2023-03-01T14:41:00.508Z,97890.09
2023-03-01T14:43:28.476Z,97880.59
2023-03-01T14:45:56.193Z,97888.59
2023-03-01T14:48:23.991Z,97889.94
2023-03-01T14:50:51.776Z,97892.13
2023-03-01T14:53:34.096Z,97882.66
2023-03-01T14:56:05.671Z,97880.78
2023-03-01T14:58:33.782Z,97887.78
2023-03-01T15:01:03.017Z,97888.75
2023-03-01T15:03:38.188Z,97889.59
2023-03-01T15:06:07.107Z,97896.03
2023-03-01T15:08:35.277Z,97891.41
2023-03-01T15:11:18.474Z,97891.41
2023-03-01T15:13:47.485Z,97893.72
2023-03-01T15:16:17.056Z,97883.09
2023-03-01T15:18:46.315Z,97893.06
2023-03-01T15:21:24.032Z,97889.66
2023-03-01T15:23:54.476Z,97896.59
2023-03-01T15:26:34.381Z,97895.88
2023-03-01T15:29:02.491Z,97896.97
2023-03-01T15:31:36.279Z,97888.47
2023-03-01T15:34:31.502Z,97889.03
2023-03-01T15:37:01.556Z,97885.44
2023-03-01T15:39:39.294Z,97873.03
2023-03-01T15:42:17.614Z,97881.31
2023-03-01T15:44:48.230Z,97890.66
2023-03-01T15:47:30.695Z,97883.38
2023-03-01T15:49:59.162Z,97875.88
2023-03-01T15:52:40.659Z,97874.28
2023-03-01T15:55:19.948Z,97863.97
2023-03-01T15:57:47.820Z,97875.44
2023-03-01T16:00:16.207Z,97872.94
2023-03-01T16:02:45.690Z,97876.91
2023-03-01T16:05:24.427Z,97866.34
2023-03-01T16:07:52.517Z,97871.91
2023-03-01T16:10:20.387Z,97869.28
2023-03-01T16:12:52.589Z,97868.97
2023-03-01T16:15:27.136Z,97862.31
2023-03-01T16:17:55.160Z,97864.22
2023-03-01T16:20:28.622Z,97849.69
2023-03-01T16:23:03.975Z,97847.19
2023-03-01T16:25:32.048Z,97845.34
2023-03-01T16:28:01.873Z,97846.50
2023-03-01T16:30:29.636Z,97836.03
2023-03-01T16:32:57.347Z,97841.38
2023-03-01T16:35:25.167Z,97837.25
2023-03-01T16:37:54.957Z,97836.88
2023-03-01T16:40:25.420Z,97845.09
2023-03-01T16:42:53.216Z,97837.97
2023-03-01T16:45:25.230Z,97839.38
2023-03-01T16:47:55.796Z,97840.22
2023-03-01T16:50:23.923Z,97841.31
2023-03-01T16:52:51.726Z,97838.66
2023-03-01T16:55:19.518Z,97840.28
2023-03-01T16:57:47.411Z,97846.66
2023-03-01T17:00:15.570Z,97854.97
2023-03-01T17:02:43.278Z,97848.28
2023-03-01T17:05:12.817Z,97848.47
2023-03-01T17:07:40.642Z,97846.66
2023-03-01T17:10:10.290Z,97836.44
2023-03-01T17:12:38.064Z,97847.81
2023-03-01T17:15:06.604Z,97850.84
2023-03-01T17:17:35.534Z,97854.97
2023-03-01T17:20:04.960Z,97849.97
2023-03-01T17:22:32.740Z,97844.13
2023-03-01T17:25:00.991Z,97846.22
2023-03-01T17:27:28.764Z,97847.81
2023-03-01T17:29:56.529Z,97844.66
2023-03-01T17:32:24.316Z,97850.84
2023-03-01T17:34:52.164Z,97850.84
2023-03-01T17:37:20.856Z,97844.63
2023-03-01T17:39:48.613Z,97847.06
2023-03-01T17:42:16.290Z,97834.59
2023-03-01T17:44:44.088Z,97850.50
2023-03-01T17:47:11.832Z,97846.31
2023-03-01T17:49:39.609Z,97841.56
2023-03-01T17:52:07.542Z,97839.28
2023-03-01T17:54:35.335Z,97842.16
2023-03-01T17:57:03.038Z,97836.63
2023-03-01T17:59:33.626Z,97832.91
2023-03-01T18:02:01.794Z,97831.84
2023-03-01T18:04:29.775Z,97827.78
2023-03-01T18:06:58.513Z,97843.13
2023-03-01T18:09:30.565Z,97825.84
2023-03-01T18:11:58.827Z,97829.84
2023-03-01T18:14:29.791Z,97836.38
2023-03-01T18:16:57.662Z,97842.66
2023-03-01T18:19:25.471Z,97851.09
2023-03-01T18:21:53.260Z,97851.69
2023-03-01T18:24:20.966Z,97845.41
2023-03-01T18:26:48.733Z,97850.06
2023-03-01T18:29:16.442Z,97853.53
2023-03-01T18:31:44.269Z,97848.13
2023-03-01T18:34:12.038Z,97850.00
2023-03-01T18:36:41.631Z,97859.03
2023-03-01T18:39:12.234Z,97861.59
2023-03-01T18:41:39.943Z,97856.22
2023-03-01T18:44:08.313Z,97852.44
2023-03-01T18:46:38.899Z,97853.28
2023-03-01T18:49:07.267Z,97857.78
2023-03-01T18:51:37.736Z,97860.47
2023-03-01T18:54:05.535Z,97859.38
2023-03-01T18:56:33.925Z,97859.56
2023-03-01T18:59:03.981Z,97853.81
2023-03-01T19:01:34.121Z,97860.59
2023-03-01T19:04:04.130Z,97849.59
2023-03-01T19:06:34.521Z,97845.25
2023-03-01T19:09:02.396Z,97841.03
2023-03-01T19:11:33.175Z,97845.66
2023-03-01T19:14:01.636Z,97843.09
2023-03-01T19:16:31.109Z,97848.47
2023-03-01T19:19:00.473Z,97843.34
2023-03-01T19:21:30.138Z,97848.84
2023-03-01T19:23:58.259Z,97853.78
2023-03-01T19:26:28.990Z,97859.75
2023-03-01T19:28:56.821Z,97867.28
2023-03-01T19:31:26.477Z,97876.38
2023-03-01T19:34:05.267Z,97875.81
2023-03-01T19:36:36.779Z,97879.06
2023-03-01T19:39:06.114Z,97877.59
2023-03-01T19:41:33.849Z,97880.25
2023-03-01T19:44:05.889Z,97885.41
2023-03-01T19:46:34.153Z,97887.31
2023-03-01T19:49:03.558Z,97882.97
2023-03-01T19:51:33.543Z,97890.53
2023-03-01T19:54:01.319Z,97894.09
2023-03-01T19:56:29.461Z,97881.16
2023-03-01T19:59:00.528Z,97893.84
2023-03-01T20:01:29.798Z,97890.66
2023-03-01T20:03:57.672Z,97898.00
2023-03-01T20:06:25.789Z,97898.22
2023-03-01T20:08:53.471Z,97905.34
2023-03-01T20:11:21.411Z,97904.09
2023-03-01T20:13:49.258Z,97906.97
2023-03-01T20:16:17.845Z,97911.38
2023-03-01T20:18:45.708Z,97910.69
2023-03-01T20:21:23.497Z,97916.31
2023-03-01T20:23:52.509Z,97912.03
2023-03-01T20:26:20.666Z,97912.03
2023-03-01T20:28:50.530Z,97908.59
2023-03-01T20:31:19.201Z,97911.06
2023-03-01T20:33:47.040Z,97917.56
2023-03-01T20:36:14.854Z,97921.56
2023-03-01T20:38:42.652Z,97924.63
2023-03-01T20:41:11.691Z,97924.75
2023-03-01T20:43:40.470Z,97922.25
2023-03-01T20:46:11.864Z,97920.53
2023-03-01T20:48:45.535Z,97925.13
2023-03-01T20:51:13.411Z,97932.50
2023-03-01T20:53:41.445Z,97935.56
2023-03-01T20:56:11.115Z,97930.00
2023-03-01T20:58:38.822Z,97926.41
2023-03-01T21:01:08.026Z,97924.75
2023-03-01T21:03:36.037Z,97928.66
2023-03-01T21:06:04.329Z,97927.38
2023-03-01T21:08:32.801Z,97929.03
2023-03-01T21:11:00.606Z,97931.31
2023-03-01T21:13:30.164Z,97944.28
2023-03-01T21:16:04.542Z,97924.25
2023-03-01T21:18:33.253Z,97924.41
2023-03-01T21:21:02.291Z,97929.38
2023-03-01T21:23:30.742Z,97923.34
2023-03-01T21:26:08.444Z,97922.94
2023-03-01T21:28:36.771Z,97926.72
2023-03-01T21:31:15.706Z,97918.75
2023-03-01T21:33:48.240Z,97916.44
2023-03-01T21:36:16.090Z,97920.97
2023-03-01T21:38:45.827Z,97917.06
2023-03-01T21:41:21.054Z,97922.06
2023-03-01T21:43:49.478Z,97915.72
2023-03-01T21:46:22.295Z,97926.81
2023-03-01T21:48:50.538Z,97926.72
2023-03-01T21:51:19.376Z,97921.59
2023-03-01T21:53:47.145Z,97922.06
2023-03-01T21:56:16.277Z,97923.09
2023-03-01T21:58:43.995Z,97927.00
2023-03-01T22:01:14.054Z,97929.03
2023-03-01T22:03:47.965Z,97924.88
2023-03-01T22:06:38.209Z,97929.38
2023-03-01T22:09:16.852Z,97927.69
2023-03-01T22:11:46.501Z,97930.72
2023-03-01T22:14:14.411Z,97928.22
2023-03-01T22:16:43.428Z,97944.31
2023-03-01T22:19:11.494Z,97946.78
2023-03-01T22:21:40.104Z,97943.22
2023-03-01T22:24:08.363Z,97948.63
2023-03-01T22:26:37.004Z,97936.88
2023-03-01T22:29:07.195Z,97949.91
2023-03-01T22:31:35.369Z,97936.53
2023-03-01T22:34:03.380Z,97942.72
2023-03-01T22:36:31.564Z,97935.00
2023-03-01T22:39:00.548Z,97932.94
2023-03-01T22:41:29.498Z,97942.66
2023-03-01T22:43:57.286Z,97935.00
2023-03-01T22:46:25.282Z,97932.03
2023-03-01T22:48:53.013Z,97924.25
2023-03-01T22:51:30.837Z,97924.50
2023-03-01T22:53:58.629Z,97927.31
2023-03-01T22:56:29.099Z,97917.44
2023-03-01T22:59:00.742Z,97918.13
2023-03-01T23:01:28.787Z,97915.59
2023-03-01T23:03:56.941Z,97923.41
2023-03-01T23:06:24.792Z,97914.97
2023-03-01T23:08:53.760Z,97908.00
2023-03-01T23:11:21.763Z,97921.13
2023-03-01T23:13:49.775Z,97915.03
2023-03-01T23:16:17.814Z,97915.44
2023-03-01T23:18:45.587Z,97903.88
2023-03-01T23:21:18.954Z,97905.69
2023-03-01T23:23:49.935Z,97903.88
2023-03-01T23:26:18.003Z,97900.84
2023-03-01T23:28:45.769Z,97900.44
2023-03-01T23:31:14.421Z,97912.63
2023-03-01T23:33:44.468Z,97895.09
2023-03-01T23:36:19.241Z,97891.53
2023-03-01T23:38:47.712Z,97894.56
2023-03-01T23:41:17.525Z,97896.97
2023-03-01T23:43:46.049Z,97899.22
2023-03-01T23:46:14.687Z,97905.56
2023-03-01T23:48:43.046Z,97901.97
2023-03-01T23:51:11.083Z,97908.88
2023-03-01T23:53:40.780Z,97898.97
2023-03-01T23:56:09.467Z,97901.16
2023-03-01T23:58:37.223Z,97893.16
